createdAt,value
2023-04-18T00:00:51.311Z,6.85
2023-04-18T00:03:17.941Z,6.50
2023-04-18T00:05:47.381Z,7.15
2023-04-18T00:08:14.446Z,7.40
2023-04-18T00:10:41.193Z,7.55
2023-04-18T00:13:07.631Z,6.97
2023-04-18T00:15:35.342Z,6.55
2023-04-18T00:18:05.783Z,7.70
2023-04-18T00:20:32.874Z,7.35
2023-04-18T00:23:00.578Z,7.57
2023-04-18T00:25:27.008Z,7.35
2023-04-18T00:27:53.429Z,6.85
2023-04-18T00:30:19.802Z,7.50
2023-04-18T00:32:46.288Z,6.35
2023-04-18T00:35:12.786Z,8.40
2023-04-18T00:37:39.171Z,6.88
2023-04-18T00:40:06.211Z,8.43
2023-04-18T00:42:33.389Z,7.47
2023-04-18T00:44:59.989Z,7.50
2023-04-18T00:47:26.470Z,7.45
2023-04-18T00:49:53.306Z,8.80
2023-04-18T00:52:20.747Z,8.18
2023-04-18T00:54:47.284Z,7.90
2023-04-18T00:57:13.777Z,7.82
2023-04-18T00:59:40.667Z,8.30
2023-04-18T01:02:07.674Z,8.27
2023-04-18T01:04:34.213Z,8.55
2023-04-18T01:07:02.109Z,8.30
2023-04-18T01:09:29.233Z,8.52
2023-04-18T01:11:55.612Z,8.27
2023-04-18T01:14:22.584Z,7.40
2023-04-18T01:16:48.999Z,8.13
2023-04-18T01:19:18.837Z,8.07
2023-04-18T01:21:45.336Z,8.77
2023-04-18T01:24:15.784Z,8.85
2023-04-18T01:26:44.646Z,8.13
2023-04-18T01:29:11.499Z,9.15
2023-04-18T01:31:38.903Z,8.95
2023-04-18T01:34:07.583Z,8.85
2023-04-18T01:36:36.214Z,9.05
2023-04-18T01:39:03.116Z,8.77
2023-04-18T01:41:32.266Z,9.27
2023-04-18T01:43:59.365Z,9.00
2023-04-18T01:46:26.112Z,8.35
2023-04-18T01:48:52.893Z,9.70
2023-04-18T01:51:20.603Z,9.77
2023-04-18T01:53:47.000Z,11.05
2023-04-18T01:56:13.524Z,9.60
2023-04-18T01:58:41.506Z,9.95
2023-04-18T02:01:08.089Z,8.43
2023-04-18T02:03:34.850Z,9.82
2023-04-18T02:06:02.775Z,9.60
2023-04-18T02:08:30.672Z,9.05
2023-04-18T02:10:57.111Z,7.75
2023-04-18T02:13:23.497Z,8.10
2023-04-18T02:15:50.813Z,9.00
2023-04-18T02:18:18.123Z,8.75
2023-04-18T02:20:46.252Z,9.15
2023-04-18T02:23:12.715Z,9.07
2023-04-18T02:25:39.122Z,9.52
2023-04-18T02:28:05.527Z,11.07
2023-04-18T02:30:32.036Z,10.65
2023-04-18T02:33:01.834Z,11.07
2023-04-18T02:35:29.138Z,12.25
2023-04-18T02:37:55.590Z,10.55
2023-04-18T02:40:22.092Z,11.85
2023-04-18T02:42:48.461Z,11.38
2023-04-18T02:45:15.309Z,11.77
2023-04-18T02:47:53.670Z,11.43
2023-04-18T02:50:21.739Z,11.18
2023-04-18T02:52:48.290Z,10.43
2023-04-18T02:55:16.374Z,10.88
2023-04-18T02:57:44.115Z,13.07
2023-04-18T03:00:29.226Z,11.68
2023-04-18T03:03:16.522Z,13.10
2023-04-18T03:06:00.058Z,11.43
2023-04-18T03:08:27.320Z,13.02
2023-04-18T03:10:56.250Z,11.45
2023-04-18T03:13:24.846Z,12.50
2023-04-18T03:15:51.754Z,13.82
2023-04-18T03:18:18.539Z,12.50
2023-04-18T03:20:45.436Z,12.68
2023-04-18T03:23:11.987Z,12.98
2023-04-18T03:25:38.772Z,13.05
2023-04-18T03:28:05.312Z,13.13
2023-04-18T03:30:33.280Z,13.93
2023-04-18T03:33:02.512Z,13.23
2023-04-18T03:35:28.961Z,13.38
2023-04-18T03:37:56.451Z,14.65
2023-04-18T03:40:25.726Z,14.98
2023-04-18T03:42:55.048Z,14.32
2023-04-18T03:45:21.517Z,12.65
2023-04-18T03:47:48.043Z,13.68
2023-04-18T03:50:15.201Z,14.15
2023-04-18T03:52:42.815Z,14.00
2023-04-18T03:55:09.632Z,13.48
2023-04-18T03:57:36.039Z,15.30
2023-04-18T04:00:08.466Z,15.32
2023-04-18T04:02:42.187Z,13.93
2023-04-18T04:05:11.110Z,15.02
2023-04-18T04:07:37.909Z,16.63
2023-04-18T04:10:05.939Z,14.52
2023-04-18T04:12:32.339Z,15.32
2023-04-18T04:14:58.752Z,15.23
2023-04-18T04:17:25.300Z,15.55
2023-04-18T04:19:52.655Z,16.45
2023-04-18T04:22:20.751Z,14.63
2023-04-18T04:24:47.453Z,16.17
2023-04-18T04:27:18.653Z,15.90
2023-04-18T04:29:45.532Z,15.52
2023-04-18T04:32:13.414Z,14.70
2023-04-18T04:34:41.575Z,17.20
2023-04-18T04:37:10.179Z,16.08
2023-04-18T04:39:46.101Z,15.93
2023-04-18T04:42:40.893Z,14.32
2023-04-18T04:45:13.764Z,16.02
2023-04-18T04:47:40.268Z,15.93
2023-04-18T04:50:11.562Z,16.42
2023-04-18T04:52:40.036Z,15.20
2023-04-18T04:55:06.998Z,14.80
2023-04-18T04:57:33.742Z,14.43
2023-04-18T05:00:02.054Z,15.57
2023-04-18T05:02:28.665Z,14.55
2023-04-18T05:04:55.338Z,15.30
2023-04-18T05:07:21.818Z,15.77
2023-04-18T05:09:48.175Z,15.07
2023-04-18T05:12:14.583Z,13.57
2023-04-18T05:14:40.932Z,13.00
2023-04-18T05:17:07.720Z,11.77
2023-04-18T05:19:34.299Z,11.95
2023-04-18T05:22:00.826Z,13.68
2023-04-18T05:24:27.196Z,12.68
2023-04-18T05:26:53.713Z,12.43
2023-04-18T05:29:20.314Z,11.57
2023-04-18T05:31:46.747Z,11.30
2023-04-18T05:34:13.361Z,11.00
2023-04-18T05:36:40.223Z,11.80
2023-04-18T05:39:06.580Z,11.73
2023-04-18T05:41:33.022Z,10.70
2023-04-18T05:44:05.471Z,11.10
2023-04-18T05:46:32.985Z,10.38
2023-04-18T05:48:59.462Z,10.40
2023-04-18T05:51:26.689Z,11.57
2023-04-18T05:53:53.082Z,10.82
2023-04-18T05:56:19.703Z,10.20
2023-04-18T05:58:47.429Z,11.13
2023-04-18T06:01:18.529Z,10.73
2023-04-18T06:03:45.233Z,10.90
2023-04-18T06:06:12.012Z,10.25
2023-04-18T06:08:39.406Z,10.55
2023-04-18T06:11:05.985Z,10.57
2023-04-18T06:13:32.502Z,11.13
2023-04-18T06:16:00.770Z,11.43
2023-04-18T06:18:27.245Z,10.43
2023-04-18T06:20:54.666Z,11.18
2023-04-18T06:23:21.078Z,10.93
2023-04-18T06:25:47.513Z,11.95
2023-04-18T06:28:13.875Z,11.05
2023-04-18T06:30:40.291Z,10.63
2023-04-18T06:33:10.262Z,10.75
2023-04-18T06:35:37.229Z,11.10
2023-04-18T06:38:04.130Z,11.23
2023-04-18T06:40:30.672Z,11.02
2023-04-18T06:42:57.228Z,11.52
2023-04-18T06:45:23.596Z,11.20
2023-04-18T06:47:51.258Z,9.98
2023-04-18T06:50:17.717Z,11.70
2023-04-18T06:52:44.428Z,12.82
2023-04-18T06:55:13.025Z,11.20
2023-04-18T06:57:43.383Z,11.02
2023-04-18T07:00:10.982Z,11.18
2023-04-18T07:02:39.363Z,11.45
2023-04-18T07:05:06.859Z,11.90
2023-04-18T07:07:34.381Z,11.40
2023-04-18T07:10:01.175Z,11.38
2023-04-18T07:12:27.726Z,10.60
2023-04-18T07:14:54.566Z,10.70
2023-04-18T07:17:21.150Z,10.13
2023-04-18T07:19:47.637Z,9.55
2023-04-18T07:22:14.032Z,10.38
2023-04-18T07:24:40.449Z,9.63
2023-04-18T07:27:06.978Z,9.80
2023-04-18T07:29:33.410Z,9.60
2023-04-18T07:31:59.810Z,10.68
2023-04-18T07:34:29.532Z,9.10
2023-04-18T07:36:57.346Z,10.25
2023-04-18T07:39:26.738Z,9.65
2023-04-18T07:41:53.261Z,9.18
2023-04-18T07:44:21.348Z,9.77
2023-04-18T07:46:47.844Z,9.70
2023-04-18T07:49:14.477Z,10.25
2023-04-18T07:51:41.002Z,10.23
2023-04-18T07:54:07.408Z,9.32
2023-04-18T07:56:33.783Z,10.05
2023-04-18T07:59:00.220Z,9.55
2023-04-18T08:01:27.150Z,9.45
2023-04-18T08:03:56.119Z,10.02
2023-04-18T08:06:22.732Z,11.38
2023-04-18T08:08:49.097Z,8.77
2023-04-18T08:11:15.465Z,9.95
2023-04-18T08:13:41.853Z,9.45
2023-04-18T08:16:08.796Z,10.05
2023-04-18T08:18:35.744Z,9.88
2023-04-18T08:21:02.264Z,9.50
2023-04-18T08:23:28.668Z,10.68
2023-04-18T08:25:55.163Z,9.75
2023-04-18T08:28:21.557Z,8.68
2023-04-18T08:30:49.055Z,8.85
2023-04-18T08:33:16.095Z,9.45
2023-04-18T08:35:43.032Z,10.60
2023-04-18T08:38:09.636Z,9.25
2023-04-18T08:40:37.414Z,9.73
2023-04-18T08:43:09.112Z,8.10
2023-04-18T08:45:36.681Z,9.35
2023-04-18T08:48:03.708Z,9.35
2023-04-18T08:50:30.767Z,8.88
2023-04-18T08:52:59.507Z,8.50
2023-04-18T08:55:25.940Z,9.18
2023-04-18T08:57:54.859Z,8.43
2023-04-18T09:00:22.524Z,8.20
2023-04-18T09:02:49.466Z,8.90
2023-04-18T09:05:21.048Z,9.07
2023-04-18T09:07:49.425Z,8.73
2023-04-18T09:10:36.455Z,8.80
2023-04-18T09:13:03.704Z,9.35
2023-04-18T09:15:31.135Z,8.18
2023-04-18T09:18:00.161Z,8.45
2023-04-18T09:20:36.437Z,8.55
2023-04-18T09:23:05.026Z,8.10
2023-04-18T09:25:44.491Z,10.05
2023-04-18T09:28:28.649Z,8.90
2023-04-18T09:30:56.955Z,8.50
2023-04-18T09:33:28.469Z,8.25
2023-04-18T09:36:22.485Z,9.63
2023-04-18T09:38:52.475Z,8.60
2023-04-18T09:41:22.366Z,8.05
2023-04-18T09:43:49.304Z,8.63
2023-04-18T09:46:17.655Z,9.55
2023-04-18T09:48:44.207Z,8.60
2023-04-18T09:51:15.591Z,9.10
2023-04-18T09:53:47.522Z,8.35
2023-04-18T09:56:23.624Z,8.63
2023-04-18T09:58:56.368Z,8.90
2023-04-18T10:01:27.920Z,7.93
2023-04-18T10:03:57.033Z,8.40
2023-04-18T10:06:27.194Z,8.13
2023-04-18T10:08:54.220Z,7.78
2023-04-18T10:11:21.789Z,8.77
2023-04-18T10:13:50.373Z,8.68
2023-04-18T10:16:18.070Z,8.23
2023-04-18T10:18:44.583Z,8.23
2023-04-18T10:21:11.669Z,7.90
2023-04-18T10:23:39.476Z,7.13
2023-04-18T10:26:06.759Z,8.10
2023-04-18T10:28:57.250Z,7.70
2023-04-18T10:31:26.694Z,7.63
2023-04-18T10:34:06.672Z,6.72
2023-04-18T10:36:33.330Z,7.65
2023-04-18T10:39:21.301Z,8.15
2023-04-18T10:41:51.653Z,7.55
2023-04-18T10:44:19.926Z,7.93
2023-04-18T10:46:52.373Z,7.55
2023-04-18T10:49:26.582Z,8.00
2023-04-18T10:51:58.267Z,7.60
2023-04-18T10:54:38.931Z,7.60
2023-04-18T10:57:08.804Z,7.70
2023-04-18T10:59:43.726Z,7.45
2023-04-18T11:02:29.897Z,7.05
2023-04-18T11:05:01.376Z,7.80
2023-04-18T11:07:38.038Z,5.97
2023-04-18T11:10:06.207Z,6.63
2023-04-18T11:12:36.300Z,6.78
2023-04-18T11:15:10.469Z,6.53
2023-04-18T11:17:39.773Z,8.93
2023-04-18T11:20:09.086Z,5.80
2023-04-18T11:22:56.097Z,6.88
2023-04-18T11:25:29.181Z,6.95
2023-04-18T11:30:24.586Z,7.10
2023-04-18T11:32:51.766Z,6.88
2023-04-18T11:35:19.403Z,7.20
2023-04-18T11:37:46.040Z,7.53
2023-04-18T11:40:13.637Z,6.35
2023-04-18T11:42:41.216Z,7.28
2023-04-18T11:45:12.625Z,6.78
2023-04-18T11:47:41.622Z,8.00
2023-04-18T11:50:09.490Z,6.70
2023-04-18T11:52:37.025Z,7.45
2023-04-18T11:55:17.750Z,7.00
2023-04-18T11:57:55.518Z,6.45
2023-04-18T12:00:43.599Z,7.28
2023-04-18T12:03:18.631Z,6.47
2023-04-18T12:05:45.629Z,6.00
2023-04-18T12:08:14.055Z,6.40
2023-04-18T12:10:47.950Z,6.03
2023-04-18T12:13:15.024Z,5.68
2023-04-18T12:15:44.279Z,5.95
2023-04-18T12:18:12.495Z,5.75
2023-04-18T12:20:51.467Z,5.57
2023-04-18T12:23:38.752Z,5.47
2023-04-18T12:26:07.447Z,5.43
2023-04-18T12:28:35.111Z,6.13
2023-04-18T12:31:02.240Z,4.55
2023-04-18T12:33:30.395Z,5.25
2023-04-18T12:35:57.267Z,5.93
2023-04-18T12:38:24.038Z,5.88
2023-04-18T12:40:51.949Z,5.80
2023-04-18T12:43:19.204Z,5.65
2023-04-18T12:45:46.910Z,5.38
2023-04-18T12:48:13.752Z,5.43
2023-04-18T12:50:40.310Z,5.88
2023-04-18T12:53:06.736Z,4.38
2023-04-18T12:55:33.212Z,5.70
2023-04-18T12:57:59.796Z,5.60
2023-04-18T13:00:31.284Z,5.70
2023-04-18T13:02:58.944Z,5.70
2023-04-18T13:05:30.881Z,4.90
2023-04-18T13:08:15.403Z,4.72
2023-04-18T13:13:09.633Z,4.60
2023-04-18T13:15:36.137Z,5.65
2023-04-18T13:18:05.755Z,4.68
2023-04-18T13:20:34.050Z,5.38
2023-04-18T13:23:02.324Z,4.88
2023-04-18T13:25:28.982Z,6.00
2023-04-18T13:27:56.220Z,4.35
2023-04-18T13:30:22.624Z,4.97
2023-04-18T13:32:49.050Z,4.50
2023-04-18T13:35:15.697Z,4.53
2023-04-18T13:37:42.375Z,4.35
2023-04-18T13:40:09.307Z,3.47
2023-04-18T13:42:36.890Z,3.97
2023-04-18T13:45:03.873Z,4.18
2023-04-18T13:47:30.449Z,4.03
2023-04-18T13:49:57.669Z,4.40
2023-04-18T13:52:24.488Z,4.22
2023-04-18T13:54:50.851Z,4.80
2023-04-18T13:57:17.199Z,4.60
2023-04-18T13:59:43.716Z,5.20
2023-04-18T14:02:10.777Z,4.93
2023-04-18T14:04:37.579Z,4.82
2023-04-18T14:07:06.106Z,4.97
2023-04-18T14:09:32.682Z,4.85
2023-04-18T14:11:59.143Z,5.80
2023-04-18T14:14:25.718Z,5.40
2023-04-18T14:16:53.500Z,5.68
2023-04-18T14:19:19.966Z,5.18
2023-04-18T14:21:47.795Z,5.82
2023-04-18T14:24:14.328Z,6.22
2023-04-18T14:26:40.731Z,6.18
2023-04-18T14:29:07.122Z,4.95
2023-04-18T14:31:33.588Z,5.78
2023-04-18T14:34:00.013Z,5.35
2023-04-18T14:36:27.069Z,5.95
2023-04-18T14:38:54.484Z,5.65
2023-04-18T14:41:20.954Z,7.15
2023-04-18T14:43:47.344Z,6.65
2023-04-18T14:46:16.405Z,7.35
2023-04-18T14:48:45.352Z,6.57
2023-04-18T14:51:12.186Z,6.22
2023-04-18T14:53:38.955Z,6.55
2023-04-18T14:56:05.735Z,7.07
2023-04-18T14:58:32.128Z,7.80
2023-04-18T15:00:58.784Z,8.32
2023-04-18T15:03:25.334Z,8.70
2023-04-18T15:05:53.025Z,7.80
2023-04-18T15:08:19.421Z,7.68
2023-04-18T15:10:47.437Z,9.32
2023-04-18T15:13:13.986Z,9.85
2023-04-18T15:15:40.431Z,10.70
2023-04-18T15:18:08.049Z,9.55
2023-04-18T15:20:36.035Z,9.90
2023-04-18T15:23:02.760Z,9.38
2023-04-18T15:25:30.351Z,9.85
2023-04-18T15:27:58.155Z,9.25
2023-04-18T15:30:25.119Z,9.32
2023-04-18T15:32:52.048Z,9.85
2023-04-18T15:35:18.588Z,9.07
2023-04-18T15:37:44.951Z,8.85
2023-04-18T15:40:15.917Z,7.97
2023-04-18T15:42:43.441Z,8.77
2023-04-18T15:45:10.858Z,8.07
2023-04-18T15:47:38.472Z,9.35
2023-04-18T15:50:05.595Z,9.48
2023-04-18T15:52:32.021Z,9.35
2023-04-18T15:54:58.498Z,9.57
2023-04-18T15:57:24.869Z,9.65
2023-04-18T15:59:51.533Z,9.48
2023-04-18T16:02:18.078Z,9.98
2023-04-18T16:04:44.639Z,8.75
2023-04-18T16:07:11.620Z,9.27
2023-04-18T16:09:37.985Z,8.55
2023-04-18T16:12:04.652Z,8.68
2023-04-18T16:14:31.163Z,8.52
2023-04-18T16:16:59.331Z,9.10
2023-04-18T16:19:26.330Z,9.02
2023-04-18T16:21:52.774Z,9.55
2023-04-18T16:24:19.172Z,9.15
2023-04-18T16:26:45.618Z,9.15
2023-04-18T16:29:11.992Z,9.05
2023-04-18T16:31:38.524Z,8.52
2023-04-18T16:34:05.220Z,9.35
2023-04-18T16:36:34.105Z,8.57
2023-04-18T16:39:00.500Z,8.43
2023-04-18T16:41:27.169Z,9.35
2023-04-18T16:43:53.860Z,9.30
2023-04-18T16:46:20.247Z,8.57
2023-04-18T16:48:46.595Z,7.85
2023-04-18T16:51:13.151Z,8.02
2023-04-18T16:53:39.564Z,8.50
2023-04-18T16:56:07.787Z,7.40
2023-04-18T16:58:34.257Z,7.38
2023-04-18T17:01:03.366Z,8.32
2023-04-18T17:03:29.863Z,7.57
2023-04-18T17:05:56.324Z,8.02
2023-04-18T17:08:22.890Z,7.55
2023-04-18T17:10:52.701Z,6.85
2023-04-18T17:13:19.178Z,7.10
2023-04-18T17:15:45.612Z,7.70
2023-04-18T17:18:12.143Z,7.78
2023-04-18T17:20:38.797Z,7.15
2023-04-18T17:23:05.242Z,8.20
2023-04-18T17:25:31.784Z,7.47
2023-04-18T17:27:58.549Z,6.90
2023-04-18T17:30:25.003Z,7.30
2023-04-18T17:32:51.480Z,7.43
2023-04-18T17:35:17.987Z,7.03
2023-04-18T17:37:44.450Z,6.93
2023-04-18T17:40:11.846Z,6.78
2023-04-18T17:42:38.495Z,7.38
2023-04-18T17:45:07.500Z,7.85
2023-04-18T17:47:36.229Z,7.47
2023-04-18T17:50:06.775Z,7.45
2023-04-18T17:52:33.344Z,7.15
2023-04-18T17:55:01.486Z,6.90
2023-04-18T17:57:30.225Z,6.90
2023-04-18T17:59:56.640Z,6.88
2023-04-18T18:02:23.793Z,6.28
2023-04-18T18:04:51.415Z,7.03
2023-04-18T18:07:18.263Z,7.13
2023-04-18T18:09:45.470Z,7.68
2023-04-18T18:12:12.211Z,6.82
2023-04-18T18:14:40.356Z,7.43
2023-04-18T18:17:07.038Z,7.57
2023-04-18T18:19:36.020Z,7.22
2023-04-18T18:22:02.636Z,7.93
2023-04-18T18:24:29.110Z,8.18
2023-04-18T18:26:56.316Z,8.20
2023-04-18T18:29:22.781Z,7.57
2023-04-18T18:31:49.248Z,8.00
2023-04-18T18:34:16.753Z,8.70
2023-04-18T18:36:43.138Z,7.68
2023-04-18T18:39:10.738Z,7.70
2023-04-18T18:41:37.220Z,8.70
2023-04-18T18:44:03.686Z,7.90
2023-04-18T18:46:30.155Z,7.90
2023-04-18T18:48:56.629Z,8.57
2023-04-18T18:51:23.682Z,8.55
2023-04-18T18:53:50.336Z,8.88
2023-04-18T18:56:16.711Z,9.30
2023-04-18T18:58:43.790Z,8.48
2023-04-18T19:01:11.417Z,8.55
2023-04-18T19:03:38.020Z,9.18
2023-04-18T19:06:06.868Z,8.52
2023-04-18T19:08:33.638Z,8.57
2023-04-18T19:11:00.118Z,8.88
2023-04-18T19:13:26.500Z,8.45
2023-04-18T19:15:52.972Z,9.52
2023-04-18T19:18:20.099Z,8.98
2023-04-18T19:20:46.839Z,8.63
2023-04-18T19:23:13.250Z,7.95
2023-04-18T19:25:39.740Z,9.18
2023-04-18T19:28:06.464Z,10.10
2023-04-18T19:30:32.853Z,9.40
2023-04-18T19:32:59.468Z,8.27
2023-04-18T19:35:25.908Z,8.25
2023-04-18T19:37:52.317Z,9.55
2023-04-18T19:40:18.818Z,9.32
2023-04-18T19:42:45.959Z,8.23
2023-04-18T19:45:13.574Z,8.18
2023-04-18T19:47:42.242Z,9.30
2023-04-18T19:50:08.992Z,8.63
2023-04-18T19:52:35.466Z,9.15
2023-04-18T19:55:01.825Z,9.57
2023-04-18T19:57:28.866Z,8.55
2023-04-18T19:59:55.573Z,8.32
2023-04-18T20:02:22.205Z,8.10
2023-04-18T20:04:48.775Z,8.80
2023-04-18T20:07:15.328Z,9.13
2023-04-18T20:09:41.936Z,8.43
2023-04-18T20:12:08.426Z,8.60
2023-04-18T20:14:34.840Z,8.63
2023-04-18T20:17:01.197Z,8.75
2023-04-18T20:19:29.446Z,9.05
2023-04-18T20:21:55.972Z,8.43
2023-04-18T20:24:23.650Z,8.50
2023-04-18T20:26:51.225Z,9.18
2023-04-18T20:29:17.666Z,9.65
2023-04-18T20:31:44.135Z,9.80
2023-04-18T20:34:10.506Z,8.93
2023-04-18T20:36:41.454Z,8.48
2023-04-18T20:39:08.789Z,8.95
2023-04-18T20:41:36.723Z,8.93
2023-04-18T20:44:05.083Z,9.10
2023-04-18T20:46:32.279Z,10.43
2023-04-18T20:48:58.882Z,8.55
2023-04-18T20:51:26.644Z,9.13
2023-04-18T20:53:53.086Z,8.85
2023-04-18T20:56:19.994Z,8.98
2023-04-18T20:58:46.354Z,8.38
2023-04-18T21:01:12.751Z,8.70
2023-04-18T21:03:39.276Z,8.27
2023-04-18T21:06:05.790Z,8.73
2023-04-18T21:08:34.556Z,8.57
2023-04-18T21:11:01.265Z,8.95
2023-04-18T21:13:27.632Z,8.10
2023-04-18T21:15:56.753Z,8.32
2023-04-18T21:18:23.560Z,8.77
2023-04-18T21:20:50.333Z,7.40
2023-04-18T21:23:16.720Z,8.30
2023-04-18T21:25:43.071Z,7.78
2023-04-18T21:28:09.456Z,7.13
2023-04-18T21:30:36.072Z,7.72
2023-04-18T21:33:02.862Z,7.82
2023-04-18T21:35:32.124Z,7.32
2023-04-18T21:37:58.531Z,7.53
2023-04-18T21:40:26.742Z,7.30
2023-04-18T21:42:53.157Z,7.80
2023-04-18T21:45:19.527Z,7.43
2023-04-18T21:47:46.631Z,7.72
2023-04-18T21:50:13.057Z,7.97
2023-04-18T21:52:39.465Z,7.93
2023-04-18T21:55:06.129Z,6.90
2023-04-18T21:57:32.528Z,6.97
2023-04-18T21:59:58.954Z,6.93
2023-04-18T22:02:26.661Z,7.95
2023-04-18T22:04:53.245Z,6.93
2023-04-18T22:07:19.620Z,7.40
2023-04-18T22:09:46.552Z,6.30
2023-04-18T22:12:15.841Z,7.30
2023-04-18T22:14:44.408Z,7.35
2023-04-18T22:17:10.802Z,6.93
2023-04-18T22:19:37.157Z,5.78
2023-04-18T22:22:03.596Z,6.47
2023-04-18T22:24:29.970Z,7.10
2023-04-18T22:26:56.544Z,7.18
2023-04-18T22:29:22.944Z,6.40
2023-04-18T22:31:49.352Z,6.95
2023-04-18T22:34:15.950Z,6.03
2023-04-18T22:36:43.725Z,6.00
2023-04-18T22:39:11.938Z,6.40
2023-04-18T22:41:38.336Z,7.07
2023-04-18T22:44:04.879Z,6.05
2023-04-18T22:46:32.695Z,5.68
2023-04-18T22:48:59.558Z,5.93
2023-04-18T22:51:28.425Z,6.50
2023-04-18T22:53:55.999Z,5.85
2023-04-18T22:56:22.413Z,6.03
2023-04-18T22:58:48.785Z,6.05
2023-04-18T23:01:15.263Z,5.57
2023-04-18T23:03:41.812Z,6.18
2023-04-18T23:06:08.381Z,5.55
2023-04-18T23:08:34.798Z,5.65
2023-04-18T23:11:01.172Z,5.63
2023-04-18T23:13:27.569Z,5.43
2023-04-18T23:15:54.031Z,5.07
2023-04-18T23:18:20.460Z,6.00
2023-04-18T23:20:46.900Z,6.43
2023-04-18T23:23:13.279Z,4.72
2023-04-18T23:25:39.754Z,5.47
2023-04-18T23:28:06.817Z,4.53
2023-04-18T23:30:36.729Z,5.85
2023-04-18T23:33:03.255Z,5.10
2023-04-18T23:35:29.705Z,5.13
2023-04-18T23:37:57.001Z,4.63
2023-04-18T23:40:23.469Z,5.40
2023-04-18T23:42:49.921Z,4.80
2023-04-18T23:45:16.474Z,4.40
2023-04-18T23:47:42.899Z,5.50
2023-04-18T23:50:09.746Z,4.78
2023-04-18T23:52:38.003Z,4.95
2023-04-18T23:55:04.726Z,4.45
2023-04-18T23:57:31.188Z,5.68
2023-04-18T23:59:57.633Z,5.10
